createdAt,value
2018-12-21T00:00:20.269Z,3.80
2018-12-21T00:02:47.901Z,4.97
2018-12-21T00:05:15.421Z,4.45
2018-12-21T00:07:42.900Z,5.17
2018-12-21T00:10:10.421Z,4.65
2018-12-21T00:12:37.962Z,5.42
2018-12-21T00:15:06.842Z,5.78
2018-12-21T00:17:35.003Z,6.40
2018-12-21T00:20:03.368Z,5.75
2018-12-21T00:22:30.829Z,7.60
2018-12-21T00:24:58.265Z,6.80
2018-12-21T00:27:25.729Z,6.87
2018-12-21T00:29:53.254Z,7.75
2018-12-21T00:32:26.371Z,6.78
2018-12-21T00:34:59.534Z,6.00
2018-12-21T00:37:32.770Z,7.55
2018-12-21T00:40:06.083Z,6.22
2018-12-21T00:42:38.145Z,8.30
2018-12-21T00:45:06.221Z,8.05
2018-12-21T00:47:33.666Z,8.58
2018-12-21T00:50:01.133Z,10.28
2018-12-21T00:52:28.696Z,8.00
2018-12-21T00:54:56.154Z,7.95
2018-12-21T00:57:23.665Z,8.05
2018-12-21T00:59:51.149Z,7.80
2018-12-21T01:02:18.587Z,7.15
2018-12-21T01:04:46.305Z,7.10
2018-12-21T01:07:13.865Z,6.60
2018-12-21T01:09:41.336Z,6.47
2018-12-21T01:12:10.470Z,7.20
2018-12-21T01:14:38.075Z,7.22
2018-12-21T01:17:05.774Z,6.40
2018-12-21T01:19:33.216Z,7.47
2018-12-21T01:22:00.724Z,7.85
2018-12-21T01:24:28.218Z,7.22
2018-12-21T01:26:55.736Z,6.60
2018-12-21T01:29:23.183Z,7.30
2018-12-21T01:31:50.648Z,6.70
2018-12-21T01:34:18.110Z,7.55
2018-12-21T01:36:45.579Z,7.22
2018-12-21T01:39:13.028Z,7.17
2018-12-21T01:41:40.498Z,7.50
2018-12-21T01:44:07.941Z,7.47
2018-12-21T01:46:35.400Z,7.20
2018-12-21T01:49:02.857Z,7.08
2018-12-21T01:51:30.317Z,7.22
2018-12-21T01:53:57.761Z,8.30
2018-12-21T01:56:25.267Z,7.33
2018-12-21T01:58:52.702Z,8.20
2018-12-21T02:01:20.157Z,7.70
2018-12-21T02:03:47.618Z,7.78
2018-12-21T02:06:15.102Z,7.53
2018-12-21T02:08:42.556Z,7.25
2018-12-21T02:11:10.020Z,8.10
2018-12-21T02:13:37.487Z,6.42
2018-12-21T02:16:05.013Z,5.35
2018-12-21T02:18:32.446Z,3.95
2018-12-21T02:20:59.890Z,5.55
2018-12-21T02:23:27.346Z,4.05
2018-12-21T02:25:54.789Z,3.40
2018-12-21T02:28:22.253Z,3.62
2018-12-21T02:30:49.706Z,3.58
2018-12-21T02:33:17.157Z,3.15
2018-12-21T02:35:45.301Z,2.75
2018-12-21T02:38:12.778Z,3.10
2018-12-21T02:40:40.223Z,2.37
2018-12-21T02:43:07.680Z,2.50
2018-12-21T02:45:35.119Z,2.80
2018-12-21T02:48:02.684Z,2.40
2018-12-21T02:50:30.214Z,2.30
2018-12-21T02:52:57.670Z,2.50
2018-12-21T02:55:25.133Z,2.75
2018-12-21T02:57:53.374Z,2.30
2018-12-21T03:00:20.839Z,2.65
2018-12-21T03:02:48.893Z,2.90
2018-12-21T03:05:16.442Z,3.60
2018-12-21T03:07:44.923Z,3.30
2018-12-21T03:10:12.458Z,2.98
2018-12-21T03:12:39.912Z,3.70
2018-12-21T03:15:07.518Z,3.70
2018-12-21T03:17:34.953Z,3.27
2018-12-21T03:20:02.417Z,3.20
2018-12-21T03:22:29.849Z,3.27
2018-12-21T03:24:57.306Z,2.60
2018-12-21T03:27:24.742Z,3.45
2018-12-21T03:29:52.206Z,2.90
2018-12-21T03:32:19.643Z,3.10
2018-12-21T03:34:47.103Z,2.83
2018-12-21T03:37:14.544Z,3.30
2018-12-21T03:39:41.965Z,3.15
2018-12-21T03:42:09.483Z,3.92
2018-12-21T03:44:36.921Z,3.40
2018-12-21T03:47:04.454Z,3.15
2018-12-21T03:49:31.957Z,3.20
2018-12-21T03:51:59.420Z,3.35
2018-12-21T03:54:26.864Z,3.45
2018-12-21T03:56:54.319Z,3.42
2018-12-21T03:59:21.754Z,2.98
2018-12-21T04:01:49.292Z,4.47
2018-12-21T04:04:16.710Z,3.47
2018-12-21T04:06:44.169Z,4.00
2018-12-21T04:09:11.602Z,4.20
2018-12-21T04:11:39.066Z,3.30
2018-12-21T04:14:06.522Z,3.30
2018-12-21T04:16:33.983Z,3.30
2018-12-21T04:19:01.422Z,3.62
2018-12-21T04:21:28.877Z,3.77
2018-12-21T04:23:56.328Z,3.35
2018-12-21T04:26:23.889Z,3.20
2018-12-21T04:28:51.430Z,3.75
2018-12-21T04:31:18.898Z,3.62
2018-12-21T04:33:46.347Z,4.37
2018-12-21T04:36:13.782Z,3.50
2018-12-21T04:38:42.059Z,3.70
2018-12-21T04:41:09.597Z,3.95
2018-12-21T04:43:37.163Z,3.95
2018-12-21T04:46:04.588Z,3.05
2018-12-21T04:48:32.045Z,3.75
2018-12-21T04:50:59.476Z,3.20
2018-12-21T04:53:26.936Z,3.80
2018-12-21T04:55:54.383Z,3.65
2018-12-21T04:58:21.843Z,4.08
2018-12-21T05:00:49.293Z,4.50
2018-12-21T05:03:16.836Z,3.77
2018-12-21T05:05:44.273Z,3.30
2018-12-21T05:08:11.759Z,2.70
2018-12-21T05:10:39.199Z,3.00
2018-12-21T05:13:06.708Z,2.52
2018-12-21T05:15:34.165Z,2.47
2018-12-21T05:18:01.770Z,2.17
2018-12-21T05:20:29.321Z,2.20
2018-12-21T05:22:56.761Z,2.15
2018-12-21T05:25:24.222Z,2.60
2018-12-21T05:27:51.665Z,2.20
2018-12-21T05:30:19.246Z,2.83
2018-12-21T05:32:46.675Z,3.00
2018-12-21T05:35:14.218Z,2.65
2018-12-21T05:37:41.665Z,3.20
2018-12-21T05:40:09.137Z,1.70
2018-12-21T05:42:36.665Z,2.40
2018-12-21T05:45:05.252Z,2.92
2018-12-21T05:47:32.710Z,2.50
2018-12-21T05:50:00.150Z,2.50
2018-12-21T05:52:27.606Z,2.35
2018-12-21T05:54:55.065Z,2.65
2018-12-21T05:57:22.528Z,2.55
2018-12-21T05:59:49.964Z,2.33
2018-12-21T06:02:17.430Z,2.87
2018-12-21T06:04:44.874Z,2.10
2018-12-21T06:07:12.333Z,2.17
2018-12-21T06:09:39.768Z,2.65
2018-12-21T06:12:07.226Z,2.20
2018-12-21T06:14:34.674Z,2.95
2018-12-21T06:17:02.126Z,1.67
2018-12-21T06:19:29.572Z,1.92
2018-12-21T06:21:57.023Z,2.17
2018-12-21T06:24:24.472Z,2.40
2018-12-21T06:26:51.955Z,3.20
2018-12-21T06:29:19.412Z,2.60
2018-12-21T06:31:46.968Z,2.80
2018-12-21T06:34:14.401Z,3.17
2018-12-21T06:36:41.861Z,2.87
2018-12-21T06:39:10.137Z,4.28
2018-12-21T06:41:37.641Z,3.10
2018-12-21T06:44:05.089Z,4.95
2018-12-21T06:46:32.526Z,3.15
2018-12-21T06:48:59.980Z,2.55
2018-12-21T06:51:27.430Z,2.05
2018-12-21T06:53:54.882Z,4.25
2018-12-21T06:56:22.330Z,2.30
2018-12-21T06:58:49.818Z,2.60
2018-12-21T07:01:17.256Z,2.65
2018-12-21T07:03:44.713Z,2.47
2018-12-21T07:06:12.172Z,2.02
2018-12-21T07:08:39.641Z,3.40
2018-12-21T07:11:07.086Z,3.70
2018-12-21T07:13:34.552Z,4.80
2018-12-21T07:16:02.064Z,3.22
2018-12-21T07:18:29.543Z,4.30
2018-12-21T07:20:56.977Z,2.62
2018-12-21T07:23:27.246Z,2.75
2018-12-21T07:25:53.882Z,3.30
2018-12-21T07:28:21.344Z,3.65
2018-12-21T07:30:48.886Z,2.33
2018-12-21T07:33:16.417Z,2.87
2018-12-21T07:35:43.857Z,2.42
2018-12-21T07:38:11.330Z,3.70
2018-12-21T07:40:38.801Z,3.00
2018-12-21T07:43:06.238Z,4.20
2018-12-21T07:45:33.803Z,4.90
2018-12-21T07:48:01.235Z,4.75
2018-12-21T07:50:29.135Z,3.50
2018-12-21T07:52:56.578Z,2.20
2018-12-21T07:55:24.040Z,2.80
2018-12-21T07:57:51.483Z,3.33
2018-12-21T08:00:18.946Z,6.03
2018-12-21T08:02:46.383Z,4.30
2018-12-21T08:05:13.859Z,7.72
2018-12-21T08:07:41.306Z,3.65
2018-12-21T08:10:11.597Z,2.45
2018-12-21T08:12:39.040Z,2.45
2018-12-21T08:15:06.503Z,2.22
2018-12-21T08:17:34.041Z,3.47
2018-12-21T08:20:01.504Z,4.15
2018-12-21T08:22:28.937Z,2.90
2018-12-21T08:24:56.389Z,4.72
2018-12-21T08:27:23.851Z,3.10
2018-12-21T08:29:51.284Z,2.45
2018-12-21T08:32:18.755Z,2.40
2018-12-21T08:34:46.285Z,2.55
2018-12-21T08:37:13.858Z,2.77
2018-12-21T08:39:41.310Z,2.58
2018-12-21T08:42:08.761Z,2.85
2018-12-21T08:44:36.203Z,1.92
2018-12-21T08:47:03.736Z,3.20
2018-12-21T08:49:32.373Z,2.33
2018-12-21T08:52:00.046Z,2.00
2018-12-21T08:54:27.497Z,2.47
2018-12-21T08:56:54.997Z,2.60
2018-12-21T08:59:22.446Z,2.85
2018-12-21T09:01:50.614Z,2.58
2018-12-21T09:04:18.077Z,4.10
2018-12-21T09:06:45.542Z,4.15
2018-12-21T09:09:12.986Z,3.20
2018-12-21T09:11:40.454Z,2.20
2018-12-21T09:14:07.996Z,3.80
2018-12-21T09:16:35.567Z,2.95
2018-12-21T09:19:03.121Z,2.58
2018-12-21T09:21:30.762Z,3.02
2018-12-21T09:24:01.135Z,3.02
2018-12-21T09:26:27.672Z,3.75
2018-12-21T09:28:55.137Z,2.10
2018-12-21T09:31:22.576Z,3.17
2018-12-21T09:33:50.050Z,2.87
2018-12-21T09:36:17.489Z,2.50
2018-12-21T09:38:44.958Z,1.90
2018-12-21T09:41:12.456Z,2.45
2018-12-21T09:43:39.947Z,2.02
2018-12-21T09:46:07.398Z,2.80
2018-12-21T09:48:34.840Z,1.65
2018-12-21T09:51:03.160Z,2.10
2018-12-21T09:53:30.615Z,1.30
2018-12-21T09:55:58.061Z,1.80
2018-12-21T09:58:25.526Z,1.85
2018-12-21T10:00:53.015Z,1.75
2018-12-21T10:03:20.445Z,1.60
2018-12-21T10:05:47.906Z,1.95
2018-12-21T10:08:15.345Z,1.85
2018-12-21T10:10:42.818Z,2.33
2018-12-21T10:13:10.355Z,2.47
2018-12-21T10:15:37.812Z,2.35
2018-12-21T10:18:05.250Z,2.20
2018-12-21T10:20:32.701Z,1.62
2018-12-21T10:23:00.148Z,2.25
2018-12-21T10:25:27.677Z,2.00
2018-12-21T10:27:55.108Z,2.87
2018-12-21T10:30:22.593Z,2.15
2018-12-21T10:32:50.040Z,2.02
2018-12-21T10:35:17.492Z,2.35
2018-12-21T10:37:44.957Z,2.72
2018-12-21T10:40:12.505Z,2.27
2018-12-21T10:42:39.951Z,2.30
2018-12-21T10:45:07.480Z,2.67
2018-12-21T10:47:34.938Z,2.10
2018-12-21T10:50:02.618Z,2.25
2018-12-21T10:52:30.090Z,2.90
2018-12-21T10:54:57.531Z,2.80
2018-12-21T10:57:24.998Z,3.08
2018-12-21T10:59:52.948Z,2.70
2018-12-21T11:02:20.419Z,2.55
2018-12-21T11:04:47.864Z,3.90
2018-12-21T11:07:15.313Z,3.75
2018-12-21T11:09:42.749Z,2.85
2018-12-21T11:12:10.295Z,3.80
2018-12-21T11:14:37.742Z,2.70
2018-12-21T11:17:05.188Z,2.80
2018-12-21T11:19:32.649Z,2.35
2018-12-21T11:22:00.093Z,2.50
2018-12-21T11:24:35.230Z,2.47
2018-12-21T11:26:56.996Z,2.50
2018-12-21T11:29:24.458Z,3.20
2018-12-21T11:31:51.905Z,1.92
2018-12-21T11:34:19.377Z,2.80
2018-12-21T11:36:46.810Z,2.75
2018-12-21T11:39:14.854Z,2.72
2018-12-21T11:41:42.393Z,1.90
2018-12-21T11:44:09.874Z,2.02
2018-12-21T11:46:37.461Z,1.77
2018-12-21T11:49:04.952Z,1.82
2018-12-21T11:51:32.391Z,1.85
2018-12-21T11:53:59.898Z,1.90
2018-12-21T11:56:27.402Z,1.67
2018-12-21T11:58:54.872Z,1.82
2018-12-21T12:01:22.354Z,1.30
2018-12-21T12:03:49.817Z,1.87
2018-12-21T12:06:17.255Z,1.45
2018-12-21T12:08:44.719Z,1.70
2018-12-21T12:11:12.171Z,1.30
2018-12-21T12:13:39.653Z,1.80
2018-12-21T12:16:07.098Z,1.77
2018-12-21T12:18:34.546Z,1.40
2018-12-21T12:21:02.011Z,1.30
2018-12-21T12:23:29.472Z,1.40
2018-12-21T12:25:56.929Z,1.50
2018-12-21T12:28:24.373Z,1.62
2018-12-21T12:30:51.851Z,1.30
2018-12-21T12:33:19.294Z,1.25
2018-12-21T12:35:46.776Z,1.55
2018-12-21T12:38:14.446Z,1.32
2018-12-21T12:40:41.895Z,1.35
2018-12-21T12:43:09.361Z,1.60
2018-12-21T12:45:36.834Z,1.80
2018-12-21T12:48:04.892Z,2.20
2018-12-21T12:50:32.342Z,1.50
2018-12-21T12:52:59.799Z,1.62
2018-12-21T12:55:27.268Z,1.50
2018-12-21T12:57:54.741Z,1.70
2018-12-21T13:00:22.226Z,1.70
2018-12-21T13:02:49.726Z,2.60
2018-12-21T13:05:17.170Z,1.82
2018-12-21T13:07:44.630Z,2.10
2018-12-21T13:10:12.084Z,2.45
2018-12-21T13:12:39.551Z,2.80
2018-12-21T13:15:08.145Z,2.52
2018-12-21T13:17:35.604Z,1.95
2018-12-21T13:20:05.599Z,2.30
2018-12-21T13:22:33.068Z,1.55
2018-12-21T13:25:00.522Z,1.95
2018-12-21T13:27:28.012Z,2.05
2018-12-21T13:29:56.306Z,1.20
2018-12-21T13:32:23.791Z,2.67
2018-12-21T13:34:51.237Z,2.47
2018-12-21T13:37:18.721Z,1.90
2018-12-21T13:39:46.168Z,2.75
2018-12-21T13:42:13.617Z,3.30
2018-12-21T13:44:41.074Z,2.90
2018-12-21T13:47:08.572Z,1.75
2018-12-21T13:49:36.107Z,2.02
2018-12-21T13:52:03.596Z,1.80
2018-12-21T13:54:31.054Z,1.30
2018-12-21T13:56:58.509Z,1.80
2018-12-21T13:59:25.976Z,1.15
2018-12-21T14:01:53.437Z,1.45
2018-12-21T14:04:20.890Z,4.05
2018-12-21T14:06:48.344Z,5.30
2018-12-21T14:09:15.827Z,1.07
2018-12-21T14:11:43.275Z,1.22
2018-12-21T14:14:10.745Z,1.37
2018-12-21T14:16:38.197Z,1.60
2018-12-21T14:19:05.692Z,1.10
2018-12-21T14:21:33.154Z,1.25
2018-12-21T14:24:00.660Z,1.25
2018-12-21T14:26:28.105Z,1.12
2018-12-21T14:28:55.594Z,1.17
2018-12-21T14:31:23.056Z,1.30
2018-12-21T14:33:50.517Z,1.15
2018-12-21T14:36:18.009Z,1.22
2018-12-21T14:38:45.461Z,1.20
2018-12-21T14:41:12.930Z,1.10
2018-12-21T14:43:40.410Z,1.05
2018-12-21T14:46:08.065Z,1.20
2018-12-21T14:48:35.525Z,1.30
2018-12-21T14:51:03.069Z,1.20
2018-12-21T14:53:30.517Z,1.20
2018-12-21T14:55:58.006Z,1.45
2018-12-21T14:58:25.480Z,1.70
2018-12-21T15:00:52.950Z,1.50
2018-12-21T15:03:20.409Z,1.50
2018-12-21T15:05:47.875Z,1.25
2018-12-21T15:08:15.926Z,1.50
2018-12-21T15:10:43.409Z,1.40
2018-12-21T15:13:10.856Z,1.70
2018-12-21T15:15:38.355Z,1.65
2018-12-21T15:18:05.911Z,1.98
2018-12-21T15:20:33.364Z,1.50
2018-12-21T15:23:01.019Z,1.32
2018-12-21T15:25:28.482Z,1.20
2018-12-21T15:27:55.975Z,1.15
2018-12-21T15:30:23.545Z,1.15
2018-12-21T15:32:51.115Z,1.25
2018-12-21T15:35:18.569Z,1.22
2018-12-21T15:37:46.045Z,1.20
2018-12-21T15:40:13.506Z,1.10
2018-12-21T15:42:40.977Z,1.37
2018-12-21T15:45:08.552Z,1.47
2018-12-21T15:47:36.022Z,2.03
2018-12-21T15:50:06.193Z,1.10
2018-12-21T15:52:33.676Z,1.07
2018-12-21T15:55:01.139Z,1.10
2018-12-21T15:57:28.611Z,1.40
2018-12-21T15:59:56.164Z,16.17
2018-12-21T16:02:23.854Z,44.05
2018-12-21T16:04:51.353Z,5.97
2018-12-21T16:07:18.823Z,2.35
2018-12-21T16:09:46.282Z,2.87
2018-12-21T16:12:13.755Z,2.10
2018-12-21T16:14:41.250Z,2.00
2018-12-21T16:17:08.981Z,2.00
2018-12-21T16:19:36.502Z,1.80
2018-12-21T16:22:04.036Z,2.25
2018-12-21T16:24:31.627Z,2.22
2018-12-21T16:26:59.295Z,1.60
2018-12-21T16:29:26.758Z,2.10
2018-12-21T16:31:54.212Z,2.75
2018-12-21T16:34:21.665Z,2.67
2018-12-21T16:36:49.159Z,2.20
2018-12-21T16:39:16.615Z,2.10
2018-12-21T16:41:44.077Z,2.10
2018-12-21T16:44:11.537Z,1.90
2018-12-21T16:46:39.019Z,1.90
2018-12-21T16:49:06.467Z,1.67
2018-12-21T16:51:34.031Z,2.30
2018-12-21T16:54:01.518Z,1.95
2018-12-21T16:56:29.357Z,2.10
2018-12-21T16:58:56.806Z,2.97
2018-12-21T17:01:24.279Z,5.77
2018-12-21T17:03:51.790Z,5.23
2018-12-21T17:06:19.282Z,5.13
2018-12-21T17:08:46.732Z,4.80
2018-12-21T17:11:14.194Z,5.60
2018-12-21T17:13:41.781Z,5.80
2018-12-21T17:16:09.245Z,5.23
2018-12-21T17:18:36.976Z,5.80
2018-12-21T17:21:04.451Z,5.00
2018-12-21T17:23:31.924Z,3.93
2018-12-21T17:25:59.422Z,9.90
2018-12-21T17:28:26.901Z,3.80
2018-12-21T17:30:54.339Z,3.90
2018-12-21T17:33:21.806Z,6.12
2018-12-21T17:35:49.262Z,7.08
2018-12-21T17:38:16.776Z,5.00
2018-12-21T17:40:44.225Z,4.85
2018-12-21T17:43:11.711Z,8.08
2018-12-21T17:45:39.179Z,7.22
2018-12-21T17:48:06.651Z,7.03
2018-12-21T17:50:34.088Z,4.53
2018-12-21T17:53:01.558Z,3.13
2018-12-21T17:55:29.019Z,4.58
2018-12-21T17:57:56.582Z,3.53
2018-12-21T18:00:24.025Z,2.47
2018-12-21T18:02:51.581Z,4.20
2018-12-21T18:05:19.027Z,2.60
2018-12-21T18:07:46.482Z,3.20
2018-12-21T18:10:14.008Z,2.77
2018-12-21T18:12:41.476Z,3.00
2018-12-21T18:15:09.185Z,3.03
2018-12-21T18:17:36.626Z,2.50
2018-12-21T18:20:07.542Z,1.62
2018-12-21T18:22:34.982Z,2.40
2018-12-21T18:25:04.784Z,2.40
2018-12-21T18:27:32.607Z,2.07
2018-12-21T18:30:00.095Z,1.67
2018-12-21T18:32:27.641Z,1.90
2018-12-21T18:34:55.101Z,2.10
2018-12-21T18:37:22.560Z,2.03
2018-12-21T18:39:50.012Z,2.30
2018-12-21T18:42:17.461Z,1.97
2018-12-21T18:44:44.925Z,2.13
2018-12-21T18:47:12.365Z,2.27
2018-12-21T18:49:39.843Z,3.10
2018-12-21T18:52:07.281Z,2.10
2018-12-21T18:54:34.749Z,4.00
2018-12-21T18:57:02.295Z,3.27
2018-12-21T18:59:29.742Z,2.30
2018-12-21T19:01:57.218Z,2.00
2018-12-21T19:04:24.665Z,3.20
2018-12-21T19:06:52.142Z,5.43
2018-12-21T19:09:19.604Z,2.23
2018-12-21T19:11:47.056Z,2.17
2018-12-21T19:14:14.508Z,1.77
2018-12-21T19:16:41.990Z,3.00
2018-12-21T19:19:10.346Z,2.63
2018-12-21T19:21:37.812Z,2.83
2018-12-21T19:24:05.269Z,1.90
2018-12-21T19:26:32.746Z,1.50
2018-12-21T19:29:00.201Z,2.23
2018-12-21T19:31:27.684Z,1.30
2018-12-21T19:33:55.159Z,2.00
2018-12-21T19:36:23.402Z,2.13
2018-12-21T19:38:50.894Z,1.73
2018-12-21T19:41:18.334Z,1.80
2018-12-21T19:43:45.818Z,1.80
2018-12-21T19:46:13.266Z,1.80
2018-12-21T19:48:40.781Z,1.90
2018-12-21T19:51:08.227Z,1.50
2018-12-21T19:53:35.713Z,1.10
2018-12-21T19:56:07.088Z,1.03
2018-12-21T19:58:34.554Z,1.30
2018-12-21T20:01:02.021Z,1.27
2018-12-21T20:03:29.473Z,1.23
2018-12-21T20:05:56.931Z,1.30
2018-12-21T20:08:28.233Z,1.00
2018-12-21T20:10:55.684Z,1.50
2018-12-21T20:13:23.167Z,1.23
2018-12-21T20:15:50.610Z,1.60
2018-12-21T20:18:18.077Z,1.67
2018-12-21T20:20:45.527Z,1.20
2018-12-21T20:23:13.017Z,1.43
2018-12-21T20:25:40.541Z,1.50
2018-12-21T20:28:07.982Z,1.83
2018-12-21T20:30:35.615Z,2.00
2018-12-21T20:33:03.227Z,1.23
2018-12-21T20:35:30.738Z,1.20
2018-12-21T20:37:58.238Z,1.00
2018-12-21T20:40:25.693Z,1.20
2018-12-21T20:42:53.154Z,1.10
2018-12-21T20:45:20.634Z,1.10
2018-12-21T20:47:48.184Z,1.30
2018-12-21T20:50:15.834Z,1.10
2018-12-21T20:52:43.277Z,1.70
2018-12-21T20:55:10.746Z,1.07
2018-12-21T20:57:41.061Z,1.60
2018-12-21T21:00:13.083Z,1.63
2018-12-21T21:02:40.569Z,2.37
2018-12-21T21:05:08.074Z,2.03
2018-12-21T21:07:35.574Z,2.57
2018-12-21T21:10:06.034Z,2.40
2018-12-21T21:12:33.461Z,3.90
2018-12-21T21:15:00.909Z,1.70
2018-12-21T21:17:28.422Z,1.50
2018-12-21T21:19:55.907Z,2.30
2018-12-21T21:22:23.348Z,2.10
2018-12-21T21:24:50.793Z,2.40
2018-12-21T21:27:18.288Z,3.00
2018-12-21T21:29:45.748Z,1.17
2018-12-21T21:32:13.387Z,1.30
2018-12-21T21:34:40.832Z,1.50
2018-12-21T21:37:08.373Z,1.30
2018-12-21T21:39:35.916Z,1.23
2018-12-21T21:42:03.526Z,1.40
2018-12-21T21:44:31.145Z,1.40
2018-12-21T21:46:58.620Z,1.93
2018-12-21T21:49:26.053Z,1.47
2018-12-21T21:51:53.517Z,1.33
2018-12-21T21:54:20.989Z,2.13
2018-12-21T21:56:48.450Z,1.90
2018-12-21T21:59:15.980Z,3.23
2018-12-21T22:01:44.502Z,4.47
2018-12-21T22:04:11.945Z,3.10
2018-12-21T22:06:39.581Z,2.00
2018-12-21T22:09:07.102Z,2.20
2018-12-21T22:11:34.537Z,2.03
2018-12-21T22:14:02.202Z,1.60
2018-12-21T22:16:29.647Z,2.20
2018-12-21T22:18:57.125Z,2.60
2018-12-21T22:21:24.569Z,2.87
2018-12-21T22:23:52.067Z,1.77
2018-12-21T22:26:19.516Z,1.20
2018-12-21T22:28:47.707Z,1.37
2018-12-21T22:31:15.161Z,0.97
2018-12-21T22:33:42.645Z,1.03
2018-12-21T22:36:10.102Z,1.00
2018-12-21T22:38:37.558Z,1.10
2018-12-21T22:41:05.011Z,1.00
2018-12-21T22:43:32.486Z,1.00
2018-12-21T22:45:59.938Z,1.40
2018-12-21T22:48:27.405Z,1.20
2018-12-21T22:50:54.861Z,1.00
2018-12-21T22:53:22.334Z,1.10
2018-12-21T22:55:49.781Z,1.20
2018-12-21T22:58:17.348Z,0.90
2018-12-21T23:00:44.780Z,1.07
2018-12-21T23:03:12.226Z,1.10
2018-12-21T23:05:39.697Z,0.93
2018-12-21T23:08:07.150Z,1.23
2018-12-21T23:10:34.617Z,1.43
2018-12-21T23:13:02.089Z,1.17
2018-12-21T23:15:29.562Z,0.87
2018-12-21T23:17:56.993Z,1.60
2018-12-21T23:20:24.461Z,1.30
2018-12-21T23:22:51.900Z,0.90
2018-12-21T23:25:19.374Z,1.67
2018-12-21T23:27:46.821Z,0.90
2018-12-21T23:30:14.285Z,1.00
2018-12-21T23:32:41.736Z,1.10
2018-12-21T23:35:09.191Z,0.80
2018-12-21T23:37:36.626Z,0.80
2018-12-21T23:40:05.541Z,1.00
2018-12-21T23:42:32.998Z,0.97
2018-12-21T23:45:00.438Z,0.90
2018-12-21T23:47:27.917Z,1.00
2018-12-21T23:49:55.368Z,0.97
2018-12-21T23:52:22.832Z,0.97
2018-12-21T23:54:50.276Z,0.90
2018-12-21T23:57:17.734Z,0.80
2018-12-21T23:59:45.183Z,0.90
